createdAt,value
2022-10-17T00:01:52.145Z,14.40
2022-10-17T00:04:19.352Z,14.40
2022-10-17T00:06:46.153Z,14.40
2022-10-17T00:09:13.463Z,14.40
2022-10-17T00:11:40.612Z,14.30
2022-10-17T00:14:07.774Z,14.40
2022-10-17T00:16:38.711Z,14.30
2022-10-17T00:19:07.800Z,14.40
2022-10-17T00:21:34.730Z,14.40
2022-10-17T00:24:02.067Z,14.40
2022-10-17T00:26:29.652Z,14.40
2022-10-17T00:28:57.484Z,14.40
2022-10-17T00:31:25.224Z,14.40
2022-10-17T00:33:53.324Z,14.40
2022-10-17T00:36:23.461Z,14.50
2022-10-17T00:38:52.909Z,14.50
2022-10-17T00:41:21.969Z,14.60
2022-10-17T00:43:55.128Z,14.60
2022-10-17T00:46:23.483Z,14.60
2022-10-17T00:48:52.976Z,14.60
2022-10-17T00:51:25.416Z,14.60
2022-10-17T00:53:52.688Z,14.60
2022-10-17T00:56:20.836Z,14.60
2022-10-17T00:58:48.409Z,14.70
2022-10-17T01:01:15.620Z,14.60
2022-10-17T01:03:43.188Z,14.70
2022-10-17T01:06:10.085Z,14.70
2022-10-17T01:08:38.992Z,14.80
2022-10-17T01:11:17.506Z,14.70
2022-10-17T01:13:49.067Z,14.90
2022-10-17T01:16:23.693Z,14.90
2022-10-17T01:19:01.273Z,14.90
2022-10-17T01:21:41.169Z,14.90
2022-10-17T01:24:52.205Z,15.00
2022-10-17T01:27:31.223Z,15.00
2022-10-17T01:30:18.925Z,15.10
2022-10-17T01:32:51.025Z,15.10
2022-10-17T01:35:25.891Z,15.10
2022-10-17T01:37:58.312Z,15.10
2022-10-17T01:40:29.914Z,15.10
2022-10-17T01:43:02.551Z,15.10
2022-10-17T01:45:34.200Z,14.90
2022-10-17T01:48:07.130Z,14.80
2022-10-17T01:50:38.284Z,14.80
2022-10-17T01:53:11.680Z,14.70
2022-10-17T01:55:42.181Z,14.70
2022-10-17T01:58:13.278Z,14.60
2022-10-17T02:00:42.797Z,14.70
2022-10-17T02:03:17.227Z,14.80
2022-10-17T02:05:45.524Z,14.90
2022-10-17T02:08:13.151Z,14.90
2022-10-17T02:10:54.766Z,15.00
2022-10-17T02:13:35.406Z,15.10
2022-10-17T02:16:15.981Z,15.10
2022-10-17T02:19:15.392Z,15.10
2022-10-17T02:21:51.138Z,15.10
2022-10-17T02:24:25.452Z,15.20
2022-10-17T02:26:56.628Z,15.20
2022-10-17T02:29:29.464Z,15.20
2022-10-17T02:32:01.068Z,15.20
2022-10-17T02:34:34.275Z,15.20
2022-10-17T02:37:04.310Z,15.20
2022-10-17T02:39:33.329Z,15.10
2022-10-17T02:42:03.481Z,15.10
2022-10-17T02:44:32.369Z,15.20
2022-10-17T02:47:04.015Z,15.10
2022-10-17T02:49:36.571Z,15.10
2022-10-17T02:52:08.188Z,15.10
2022-10-17T02:54:41.311Z,15.10
2022-10-17T02:57:12.165Z,15.10
2022-10-17T02:59:42.105Z,15.10
2022-10-17T03:02:08.951Z,15.10
2022-10-17T03:04:37.743Z,15.10
2022-10-17T03:07:04.604Z,15.10
2022-10-17T03:09:31.774Z,15.10
2022-10-17T03:11:58.667Z,15.20
2022-10-17T03:14:25.996Z,15.20
2022-10-17T03:16:52.945Z,15.20
2022-10-17T03:19:20.232Z,15.20
2022-10-17T03:21:49.183Z,15.20
2022-10-17T03:24:16.511Z,15.10
2022-10-17T03:26:43.431Z,15.10
2022-10-17T03:29:10.820Z,15.10
2022-10-17T03:31:37.693Z,15.10
2022-10-17T03:34:04.513Z,15.10
2022-10-17T03:36:31.866Z,15.10
2022-10-17T03:39:00.145Z,15.10
2022-10-17T03:41:27.426Z,15.10
2022-10-17T03:43:54.557Z,15.10
2022-10-17T03:46:21.954Z,15.10
2022-10-17T03:48:48.764Z,15.10
2022-10-17T03:51:16.100Z,15.10
2022-10-17T03:53:43.286Z,15.10
2022-10-17T03:56:13.380Z,15.10
2022-10-17T03:58:40.558Z,15.10
2022-10-17T04:01:09.429Z,15.10
2022-10-17T04:03:36.512Z,15.10
2022-10-17T04:06:04.943Z,15.10
2022-10-17T04:08:32.273Z,15.00
2022-10-17T04:10:59.955Z,15.00
2022-10-17T04:13:28.767Z,15.00
2022-10-17T04:15:56.452Z,15.00
2022-10-17T04:18:23.402Z,15.00
2022-10-17T04:20:51.539Z,15.00
2022-10-17T04:23:18.628Z,15.00
2022-10-17T04:25:45.808Z,15.00
2022-10-17T04:28:12.700Z,15.00
2022-10-17T04:30:43.678Z,14.90
2022-10-17T04:33:12.442Z,14.90
2022-10-17T04:35:39.727Z,15.00
2022-10-17T04:38:06.596Z,14.90
2022-10-17T04:40:33.857Z,14.90
2022-10-17T04:43:00.663Z,14.90
2022-10-17T04:45:27.748Z,14.90
2022-10-17T04:47:56.009Z,14.90
2022-10-17T04:50:23.156Z,14.90
2022-10-17T04:52:50.014Z,14.90
2022-10-17T04:55:17.277Z,14.90
2022-10-17T04:57:44.125Z,14.90
2022-10-17T05:00:12.220Z,14.90
2022-10-17T05:02:39.019Z,14.90
2022-10-17T05:05:08.530Z,14.90
2022-10-17T05:07:35.372Z,14.90
2022-10-17T05:10:02.663Z,14.90
2022-10-17T05:12:29.836Z,14.80
2022-10-17T05:14:57.192Z,14.90
2022-10-17T05:17:24.388Z,14.90
2022-10-17T05:19:51.735Z,14.80
2022-10-17T05:22:19.939Z,14.90
2022-10-17T05:24:47.249Z,14.80
2022-10-17T05:27:14.096Z,14.80
2022-10-17T05:29:41.268Z,14.80
2022-10-17T05:32:08.164Z,14.80
2022-10-17T05:34:35.492Z,14.70
2022-10-17T05:37:02.303Z,14.70
2022-10-17T05:39:30.768Z,14.70
2022-10-17T05:41:57.610Z,14.70
2022-10-17T05:44:24.794Z,14.70
2022-10-17T05:46:52.109Z,14.70
2022-10-17T05:49:32.670Z,14.70
2022-10-17T05:52:06.971Z,14.70
2022-10-17T05:54:35.570Z,14.70
2022-10-17T05:57:02.552Z,14.70
2022-10-17T05:59:29.987Z,14.70
2022-10-17T06:01:56.978Z,14.70
2022-10-17T06:04:24.243Z,14.70
2022-10-17T06:06:51.160Z,14.70
2022-10-17T06:09:18.496Z,14.60
2022-10-17T06:11:46.819Z,14.60
2022-10-17T06:14:14.020Z,14.60
2022-10-17T06:16:40.970Z,14.60
2022-10-17T06:19:08.094Z,14.60
2022-10-17T06:21:37.703Z,14.60
2022-10-17T06:24:05.290Z,14.60
2022-10-17T06:26:32.200Z,14.60
2022-10-17T06:29:00.740Z,14.60
2022-10-17T06:31:27.672Z,14.60
2022-10-17T06:33:54.874Z,14.70
2022-10-17T06:36:21.815Z,14.80
2022-10-17T06:38:49.216Z,14.70
2022-10-17T06:41:19.189Z,14.80
2022-10-17T06:43:47.857Z,14.80
2022-10-17T06:46:18.563Z,14.90
2022-10-17T06:48:45.789Z,14.90
2022-10-17T06:51:12.851Z,14.90
2022-10-17T06:53:42.825Z,15.00
2022-10-17T06:56:10.751Z,15.10
2022-10-17T06:58:40.006Z,15.10
2022-10-17T07:03:43.927Z,15.10
2022-10-17T07:06:11.327Z,15.20
2022-10-17T07:08:38.718Z,15.20
2022-10-17T07:11:12.049Z,15.30
2022-10-17T07:13:39.536Z,15.40
2022-10-17T07:16:06.933Z,15.50
2022-10-17T07:18:34.505Z,15.60
2022-10-17T07:21:03.948Z,15.70
2022-10-17T07:23:31.489Z,15.80
2022-10-17T07:26:00.408Z,15.90
2022-10-17T07:28:28.904Z,16.00
2022-10-17T07:30:55.912Z,16.00
2022-10-17T07:33:23.213Z,16.10
2022-10-17T07:35:52.531Z,16.20
2022-10-17T07:38:21.230Z,16.20
2022-10-17T07:40:54.573Z,16.20
2022-10-17T07:43:21.811Z,16.20
2022-10-17T07:45:48.642Z,16.20
2022-10-17T07:48:15.919Z,16.20
2022-10-17T07:50:42.816Z,16.20
2022-10-17T07:53:10.159Z,16.20
2022-10-17T07:55:38.864Z,16.30
2022-10-17T07:58:06.746Z,16.30
2022-10-17T08:00:33.925Z,16.40
2022-10-17T08:03:01.337Z,16.40
2022-10-17T08:05:29.102Z,16.50
2022-10-17T08:07:56.543Z,16.60
2022-10-17T08:10:27.662Z,16.80
2022-10-17T08:12:57.227Z,16.90
2022-10-17T08:15:28.006Z,17.00
2022-10-17T08:17:59.017Z,17.10
2022-10-17T08:20:25.908Z,17.20
2022-10-17T08:22:53.771Z,17.30
2022-10-17T08:25:21.265Z,17.30
2022-10-17T08:27:48.435Z,17.40
2022-10-17T08:30:17.088Z,17.40
2022-10-17T08:32:44.382Z,17.40
2022-10-17T08:35:12.041Z,17.50
2022-10-17T08:37:39.189Z,17.50
2022-10-17T08:40:07.068Z,17.50
2022-10-17T08:42:54.972Z,17.60
2022-10-17T08:45:31.004Z,17.60
2022-10-17T08:48:00.433Z,17.70
2022-10-17T08:50:34.840Z,17.80
2022-10-17T08:53:08.056Z,17.80
2022-10-17T08:55:41.369Z,17.90
2022-10-17T08:58:14.810Z,17.90
2022-10-17T09:00:50.237Z,18.10
2022-10-17T09:03:30.228Z,18.20
2022-10-17T09:06:09.014Z,18.30
2022-10-17T09:08:43.716Z,18.40
2022-10-17T09:11:23.637Z,18.50
2022-10-17T09:14:01.990Z,18.60
2022-10-17T09:16:52.413Z,18.80
2022-10-17T09:19:23.725Z,19.00
2022-10-17T09:21:54.890Z,19.10
2022-10-17T09:24:27.006Z,19.20
2022-10-17T09:26:55.584Z,19.30
2022-10-17T09:29:25.196Z,19.40
2022-10-17T09:31:59.976Z,19.50
2022-10-17T09:34:29.605Z,19.50
2022-10-17T09:36:58.758Z,19.60
2022-10-17T09:39:26.918Z,19.80
2022-10-17T09:41:55.798Z,19.90
2022-10-17T09:44:24.202Z,19.90
2022-10-17T09:47:15.177Z,20.00
2022-10-17T09:49:43.945Z,20.10
2022-10-17T09:52:15.008Z,20.10
2022-10-17T09:54:45.573Z,20.20
2022-10-17T09:57:14.161Z,20.30
2022-10-17T09:59:43.622Z,20.30
2022-10-17T10:02:23.615Z,20.40
2022-10-17T10:05:04.575Z,20.50
2022-10-17T10:07:34.069Z,20.60
2022-10-17T10:10:03.014Z,20.70
2022-10-17T10:12:32.933Z,20.70
2022-10-17T10:15:00.384Z,20.80
2022-10-17T10:17:35.404Z,20.90
2022-10-17T10:20:03.169Z,21.10
2022-10-17T10:22:30.582Z,21.30
2022-10-17T10:25:17.282Z,21.40
2022-10-17T10:27:46.633Z,21.70
2022-10-17T10:30:19.257Z,21.60
2022-10-17T10:32:50.096Z,21.50
2022-10-17T10:35:22.990Z,21.50
2022-10-17T10:37:51.979Z,21.30
2022-10-17T10:40:23.335Z,21.20
2022-10-17T10:42:52.928Z,21.20
2022-10-17T10:45:46.933Z,21.20
2022-10-17T10:48:21.870Z,21.40
2022-10-17T10:50:52.674Z,21.80
2022-10-17T10:53:40.593Z,21.90
2022-10-17T10:56:13.675Z,21.70
2022-10-17T10:58:53.527Z,21.70
2022-10-17T11:01:27.608Z,21.80
2022-10-17T11:04:14.819Z,21.80
2022-10-17T11:06:45.044Z,21.90
2022-10-17T11:09:22.487Z,21.90
2022-10-17T11:11:56.176Z,21.90
2022-10-17T11:14:39.274Z,21.90
2022-10-17T11:17:12.990Z,21.90
2022-10-17T11:19:45.945Z,21.90
2022-10-17T11:22:17.323Z,21.90
2022-10-17T11:24:57.256Z,22.00
2022-10-17T11:27:24.593Z,22.10
2022-10-17T11:29:51.926Z,22.20
2022-10-17T11:32:24.805Z,22.20
2022-10-17T11:34:59.177Z,22.20
2022-10-17T11:37:29.978Z,22.20
2022-10-17T11:40:02.567Z,22.30
2022-10-17T11:42:34.065Z,22.50
2022-10-17T11:45:05.929Z,22.70
2022-10-17T11:47:39.290Z,22.80
2022-10-17T11:53:14.978Z,22.90
2022-10-17T11:55:43.254Z,22.80
2022-10-17T11:58:30.608Z,22.90
2022-10-17T12:01:06.924Z,23.00
2022-10-17T12:03:52.904Z,23.20
2022-10-17T12:06:37.352Z,23.20
2022-10-17T12:09:11.668Z,23.20
2022-10-17T12:11:50.772Z,23.10
2022-10-17T12:14:42.787Z,23.10
2022-10-17T12:17:32.965Z,23.20
2022-10-17T12:20:35.011Z,23.60
2022-10-17T12:23:21.707Z,23.80
2022-10-17T12:25:51.119Z,23.60
2022-10-17T12:28:31.150Z,23.30
2022-10-17T12:31:01.448Z,23.20
2022-10-17T12:33:34.911Z,23.10
2022-10-17T12:36:40.673Z,23.00
2022-10-17T12:39:49.669Z,22.90
2022-10-17T12:42:51.176Z,23.00
2022-10-17T12:45:52.706Z,22.90
2022-10-17T12:49:01.736Z,22.90
2022-10-17T12:51:37.890Z,22.90
2022-10-17T12:54:12.897Z,22.80
2022-10-17T12:56:41.987Z,22.90
2022-10-17T12:59:16.106Z,22.90
2022-10-17T13:01:47.425Z,22.90
2022-10-17T13:04:15.749Z,22.90
2022-10-17T13:06:46.604Z,23.00
2022-10-17T13:09:24.241Z,23.00
2022-10-17T13:11:52.317Z,23.00
2022-10-17T13:14:23.232Z,23.00
2022-10-17T13:16:55.263Z,23.00
2022-10-17T13:19:24.560Z,23.00
2022-10-17T13:21:52.058Z,23.00
2022-10-17T13:24:24.584Z,22.90
2022-10-17T13:26:51.457Z,22.90
2022-10-17T13:29:22.075Z,22.90
2022-10-17T13:31:54.257Z,22.90
2022-10-17T13:34:24.321Z,22.90
2022-10-17T13:36:53.672Z,22.80
2022-10-17T13:39:38.409Z,22.80
2022-10-17T13:42:21.572Z,22.80
2022-10-17T13:44:50.592Z,22.80
2022-10-17T13:47:22.613Z,22.80
2022-10-17T13:49:52.901Z,22.90
2022-10-17T13:52:25.088Z,22.90
2022-10-17T13:54:53.978Z,22.90
2022-10-17T13:57:22.984Z,22.80
2022-10-17T13:59:53.972Z,22.80
2022-10-17T14:02:23.120Z,22.80
2022-10-17T14:05:18.647Z,22.80
2022-10-17T14:08:10.889Z,22.80
2022-10-17T14:10:40.573Z,22.80
2022-10-17T14:13:17.947Z,22.90
2022-10-17T14:15:46.793Z,22.90
2022-10-17T14:18:20.715Z,22.80
2022-10-17T14:21:31.763Z,22.80
2022-10-17T14:23:39.356Z,22.80
2022-10-17T14:26:10.321Z,22.80
2022-10-17T14:28:38.114Z,22.80
2022-10-17T14:31:29.554Z,22.90
2022-10-17T14:33:57.168Z,23.20
2022-10-17T14:36:35.881Z,23.50
2022-10-17T14:39:05.225Z,23.60
2022-10-17T14:41:42.817Z,23.40
2022-10-17T14:44:19.551Z,23.30
2022-10-17T14:46:52.756Z,23.20
2022-10-17T14:49:26.147Z,23.00
2022-10-17T14:52:16.774Z,23.00
2022-10-17T14:54:49.427Z,22.80
2022-10-17T14:57:18.615Z,22.80
2022-10-17T14:59:55.071Z,22.70
2022-10-17T15:02:24.509Z,22.60
2022-10-17T15:04:52.176Z,22.60
2022-10-17T15:07:21.048Z,22.60
2022-10-17T15:09:49.796Z,22.60
2022-10-17T15:12:18.462Z,22.50
2022-10-17T15:14:48.176Z,22.50
2022-10-17T15:17:17.061Z,22.40
2022-10-17T15:19:45.622Z,22.40
2022-10-17T15:22:12.894Z,22.30
2022-10-17T15:24:40.173Z,22.30
2022-10-17T15:27:13.763Z,22.20
2022-10-17T15:29:41.068Z,22.30
2022-10-17T15:32:09.096Z,22.10
2022-10-17T15:34:36.512Z,22.10
2022-10-17T15:37:06.443Z,22.10
2022-10-17T15:39:33.435Z,22.00
2022-10-17T15:42:00.570Z,22.00
2022-10-17T15:44:27.650Z,21.90
2022-10-17T15:46:56.728Z,21.80
2022-10-17T15:49:23.621Z,21.80
2022-10-17T15:51:53.039Z,21.80
2022-10-17T15:54:23.509Z,21.70
2022-10-17T15:56:54.723Z,21.70
2022-10-17T15:59:31.192Z,21.60
2022-10-17T16:01:58.065Z,21.60
2022-10-17T16:04:27.164Z,21.50
2022-10-17T16:06:54.799Z,21.50
2022-10-17T16:09:23.026Z,21.50
2022-10-17T16:11:50.195Z,21.50
2022-10-17T16:14:18.187Z,21.40
2022-10-17T16:16:45.446Z,21.40
2022-10-17T16:19:12.855Z,21.40
2022-10-17T16:21:41.754Z,21.40
2022-10-17T16:24:10.925Z,21.40
2022-10-17T16:26:39.661Z,21.40
2022-10-17T16:29:06.655Z,21.40
2022-10-17T16:31:35.367Z,21.40
2022-10-17T16:34:03.885Z,21.40
2022-10-17T16:36:30.732Z,21.40
2022-10-17T16:38:57.953Z,21.30
2022-10-17T16:41:26.817Z,21.30
2022-10-17T16:43:57.007Z,21.30
2022-10-17T16:46:25.650Z,21.30
2022-10-17T16:48:53.218Z,21.20
2022-10-17T16:51:21.163Z,21.10
2022-10-17T16:53:50.700Z,21.10
2022-10-17T16:56:19.835Z,21.10
2022-10-17T16:58:47.703Z,21.10
2022-10-17T17:01:18.276Z,21.00
2022-10-17T17:03:47.165Z,21.00
2022-10-17T17:06:16.921Z,21.00
2022-10-17T17:08:44.468Z,21.00
2022-10-17T17:11:13.534Z,20.90
2022-10-17T17:13:41.262Z,20.90
2022-10-17T17:16:10.106Z,20.90
2022-10-17T17:18:38.963Z,20.80
2022-10-17T17:21:07.786Z,20.80
2022-10-17T17:23:37.197Z,20.80
2022-10-17T17:26:06.805Z,20.80
2022-10-17T17:28:34.877Z,20.70
2022-10-17T17:31:02.052Z,20.70
2022-10-17T17:33:30.125Z,20.70
2022-10-17T17:36:00.396Z,20.60
2022-10-17T17:38:29.362Z,20.60
2022-10-17T17:40:56.376Z,20.60
2022-10-17T17:43:24.068Z,20.60
2022-10-17T17:45:51.352Z,20.60
2022-10-17T17:48:18.273Z,20.60
2022-10-17T17:50:45.415Z,20.60
2022-10-17T17:53:15.874Z,20.60
2022-10-17T17:55:43.018Z,20.60
2022-10-17T17:58:11.233Z,20.60
2022-10-17T18:00:38.681Z,20.60
2022-10-17T18:03:05.935Z,20.60
2022-10-17T18:05:33.015Z,20.50
2022-10-17T18:07:59.980Z,20.50
2022-10-17T18:10:29.567Z,20.60
2022-10-17T18:12:56.447Z,20.50
2022-10-17T18:15:23.409Z,20.50
2022-10-17T18:17:50.311Z,20.50
2022-10-17T18:20:17.688Z,20.50
2022-10-17T18:22:44.628Z,20.40
2022-10-17T18:25:11.899Z,20.30
2022-10-17T18:27:40.175Z,20.40
2022-10-17T18:30:08.935Z,20.30
2022-10-17T18:32:35.791Z,20.30
2022-10-17T18:35:06.009Z,20.30
2022-10-17T18:37:32.941Z,20.20
2022-10-17T18:40:00.295Z,20.20
2022-10-17T18:42:27.403Z,20.10
2022-10-17T18:44:55.841Z,20.00
2022-10-17T18:47:22.702Z,20.00
2022-10-17T18:49:50.132Z,19.90
2022-10-17T18:52:17.069Z,19.90
2022-10-17T18:54:43.992Z,19.80
2022-10-17T18:57:10.977Z,19.80
2022-10-17T18:59:38.215Z,19.80
2022-10-17T19:02:07.466Z,19.70
2022-10-17T19:04:34.401Z,19.70
2022-10-17T19:07:01.235Z,19.70
2022-10-17T19:09:28.495Z,19.70
2022-10-17T19:11:56.415Z,19.60
2022-10-17T19:14:23.597Z,19.60
2022-10-17T19:16:51.587Z,19.60
2022-10-17T19:19:21.942Z,19.50
2022-10-17T19:21:50.937Z,19.50
2022-10-17T19:24:19.747Z,19.40
2022-10-17T19:26:50.120Z,19.40
2022-10-17T19:29:18.192Z,19.40
2022-10-17T19:31:46.260Z,19.30
2022-10-17T19:34:14.012Z,19.30
2022-10-17T19:36:42.448Z,19.30
2022-10-17T19:39:14.934Z,19.30
2022-10-17T19:41:42.743Z,19.20
2022-10-17T19:44:09.832Z,19.20
2022-10-17T19:46:36.847Z,19.10
2022-10-17T19:49:05.152Z,19.20
2022-10-17T19:51:33.016Z,19.10
2022-10-17T19:54:01.724Z,19.10
2022-10-17T19:56:30.625Z,19.10
2022-10-17T19:58:58.471Z,19.00
2022-10-17T20:01:27.249Z,19.00
2022-10-17T20:03:54.894Z,19.00
2022-10-17T20:06:22.483Z,18.90
2022-10-17T20:08:50.215Z,18.90
2022-10-17T20:11:20.294Z,18.90
2022-10-17T20:13:48.328Z,18.90
2022-10-17T20:16:18.101Z,18.80
2022-10-17T20:18:45.101Z,18.80
2022-10-17T20:21:14.359Z,18.70
2022-10-17T20:23:41.985Z,18.70
2022-10-17T20:26:33.265Z,18.70
2022-10-17T20:29:02.513Z,18.70
2022-10-17T20:31:30.072Z,18.70
2022-10-17T20:33:57.660Z,18.70
2022-10-17T20:36:25.417Z,18.70
2022-10-17T20:38:56.887Z,18.70
2022-10-17T20:41:25.596Z,18.60
2022-10-17T20:43:54.278Z,18.60
2022-10-17T20:46:36.495Z,18.60
2022-10-17T20:49:05.215Z,18.60
2022-10-17T20:51:32.643Z,18.50
2022-10-17T20:53:59.853Z,18.50
2022-10-17T20:56:28.361Z,18.50
2022-10-17T20:58:56.890Z,18.50
2022-10-17T21:01:26.276Z,18.50
2022-10-17T21:03:53.721Z,18.50
2022-10-17T21:06:21.472Z,18.60
2022-10-17T21:08:48.904Z,18.50
2022-10-17T21:11:18.072Z,18.50
2022-10-17T21:13:46.195Z,18.40
2022-10-17T21:16:14.999Z,18.40
2022-10-17T21:18:43.900Z,18.30
2022-10-17T21:21:13.197Z,18.40
2022-10-17T21:23:41.192Z,18.30
2022-10-17T21:26:09.891Z,18.30
2022-10-17T21:28:37.769Z,18.20
2022-10-17T21:31:13.438Z,18.20
2022-10-17T21:33:41.602Z,18.20
2022-10-17T21:36:10.825Z,18.10
2022-10-17T21:38:38.730Z,18.10
2022-10-17T21:41:07.109Z,18.10
2022-10-17T21:43:35.651Z,18.00
2022-10-17T21:46:03.903Z,17.90
2022-10-17T21:48:31.433Z,17.90
2022-10-17T21:51:00.715Z,17.90
2022-10-17T21:53:29.107Z,17.90
2022-10-17T21:55:59.409Z,17.90
2022-10-17T21:58:26.755Z,17.90
2022-10-17T22:00:53.847Z,17.80
2022-10-17T22:03:21.027Z,17.90
2022-10-17T22:05:47.945Z,17.80
2022-10-17T22:08:16.163Z,17.80
2022-10-17T22:10:44.420Z,17.80
2022-10-17T22:13:11.784Z,17.70
2022-10-17T22:15:38.679Z,17.70
2022-10-17T22:18:05.880Z,17.70
2022-10-17T22:20:34.294Z,17.70
2022-10-17T22:23:01.489Z,17.70
2022-10-17T22:25:28.321Z,17.70
2022-10-17T22:27:57.039Z,17.70
2022-10-17T22:30:23.892Z,17.60
2022-10-17T22:32:51.126Z,17.60
2022-10-17T22:35:17.995Z,17.60
2022-10-17T22:37:45.228Z,17.60
2022-10-17T22:40:12.535Z,17.60
2022-10-17T22:42:39.686Z,17.60
2022-10-17T22:45:08.733Z,17.60
2022-10-17T22:47:35.932Z,17.60
2022-10-17T22:50:02.809Z,17.50
2022-10-17T22:52:30.063Z,17.50
2022-10-17T22:54:57.534Z,17.60
2022-10-17T22:57:24.694Z,17.60
2022-10-17T22:59:51.538Z,17.60
2022-10-17T23:02:19.988Z,17.60
2022-10-17T23:04:46.848Z,17.50
2022-10-17T23:07:14.281Z,17.60
2022-10-17T23:09:41.829Z,17.50
2022-10-17T23:12:09.268Z,17.50
2022-10-17T23:14:40.972Z,17.50
2022-10-17T23:17:07.804Z,17.50
2022-10-17T23:19:36.482Z,17.50
2022-10-17T23:22:03.772Z,17.40
2022-10-17T23:24:31.090Z,17.50
2022-10-17T23:26:57.963Z,17.50
2022-10-17T23:29:25.790Z,17.50
2022-10-17T23:31:54.692Z,17.50
2022-10-17T23:34:22.133Z,17.50
2022-10-17T23:36:51.690Z,17.50
2022-10-17T23:39:18.924Z,17.40
2022-10-17T23:41:45.998Z,17.40
2022-10-17T23:44:13.626Z,17.40
2022-10-17T23:46:40.505Z,17.40
2022-10-17T23:49:07.778Z,17.40
2022-10-17T23:51:34.688Z,17.40
2022-10-17T23:54:03.358Z,17.30
2022-10-17T23:56:30.166Z,17.30
2022-10-17T23:58:57.413Z,17.30
